createdAt,value
2023-05-06T00:00:57.747Z,100401.50
2023-05-06T00:03:24.445Z,100406.10
2023-05-06T00:05:51.078Z,100402.42
2023-05-06T00:08:17.488Z,100400.86
2023-05-06T00:10:45.644Z,100404.23
2023-05-06T00:13:12.462Z,100404.77
2023-05-06T00:15:39.891Z,100406.55
2023-05-06T00:18:06.514Z,100403.96
2023-05-06T00:20:32.991Z,100402.77
2023-05-06T00:22:59.592Z,100404.38
2023-05-06T00:25:26.068Z,100404.06
2023-05-06T00:27:53.499Z,100405.34
2023-05-06T00:30:20.027Z,100409.23
2023-05-06T00:32:46.478Z,100406.45
2023-05-06T00:35:12.997Z,100407.67
2023-05-06T00:37:39.500Z,100412.45
2023-05-06T00:40:06.754Z,100412.99
2023-05-06T00:42:33.487Z,100412.85
2023-05-06T00:44:59.952Z,100411.30
2023-05-06T00:47:26.532Z,100410.95
2023-05-06T00:49:53.142Z,100410.98
2023-05-06T00:52:20.071Z,100409.23
2023-05-06T00:54:46.602Z,100412.75
2023-05-06T00:57:13.668Z,100409.97
2023-05-06T00:59:40.260Z,100413.13
2023-05-06T01:02:06.718Z,100409.64
2023-05-06T01:04:33.194Z,100411.07
2023-05-06T01:07:23.805Z,100410.19
2023-05-06T01:10:16.110Z,100407.56
2023-05-06T01:13:01.896Z,100405.98
2023-05-06T01:15:33.790Z,100403.90
2023-05-06T01:18:04.294Z,100403.02
2023-05-06T01:20:31.818Z,100400.73
2023-05-06T01:22:58.451Z,100404.43
2023-05-06T01:25:24.938Z,100406.20
2023-05-06T01:27:51.359Z,100400.05
2023-05-06T01:30:19.461Z,100398.65
2023-05-06T01:33:09.046Z,100399.20
2023-05-06T01:35:47.499Z,100396.75
2023-05-06T01:38:32.837Z,100391.66
2023-05-06T01:41:01.742Z,100392.73
2023-05-06T01:43:40.881Z,100388.52
2023-05-06T01:46:12.336Z,100387.66
2023-05-06T01:48:39.679Z,100384.70
2023-05-06T01:51:06.171Z,100381.02
2023-05-06T01:53:32.916Z,100381.73
2023-05-06T01:55:59.365Z,100380.35
2023-05-06T01:58:25.893Z,100377.90
2023-05-06T02:00:52.411Z,100381.25
2023-05-06T02:03:18.936Z,100380.55
2023-05-06T02:05:45.700Z,100380.73
2023-05-06T02:08:12.198Z,100378.10
2023-05-06T02:10:38.676Z,100378.11
2023-05-06T02:13:05.694Z,100379.35
2023-05-06T02:15:32.190Z,100379.00
2023-05-06T02:17:58.694Z,100381.64
2023-05-06T02:20:25.340Z,100385.16
2023-05-06T02:22:51.795Z,100383.61
2023-05-06T02:25:18.268Z,100382.77
2023-05-06T02:27:44.740Z,100383.99
2023-05-06T02:30:12.095Z,100382.60
2023-05-06T02:32:38.619Z,100382.77
2023-05-06T02:35:05.565Z,100379.06
2023-05-06T02:37:31.987Z,100383.46
2023-05-06T02:39:58.500Z,100386.80
2023-05-06T02:42:24.968Z,100388.39
2023-05-06T02:44:51.437Z,100389.61
2023-05-06T02:47:17.898Z,100391.20
2023-05-06T02:49:44.368Z,100389.83
2023-05-06T02:52:10.822Z,100388.25
2023-05-06T02:54:37.258Z,100386.34
2023-05-06T02:57:03.741Z,100384.59
2023-05-06T02:59:30.190Z,100386.55
2023-05-06T03:01:56.602Z,100394.48
2023-05-06T03:04:23.135Z,100398.52
2023-05-06T03:06:49.686Z,100397.98
2023-05-06T03:09:16.121Z,100404.31
2023-05-06T03:11:42.584Z,100401.00
2023-05-06T03:14:09.064Z,100404.50
2023-05-06T03:16:35.568Z,100401.34
2023-05-06T03:19:02.177Z,100398.70
2023-05-06T03:21:28.701Z,100397.83
2023-05-06T03:23:55.276Z,100394.48
2023-05-06T03:26:21.691Z,100398.53
2023-05-06T03:28:48.185Z,100394.69
2023-05-06T03:31:14.638Z,100390.81
2023-05-06T03:33:41.113Z,100388.36
2023-05-06T03:36:07.694Z,100383.42
2023-05-06T03:38:34.188Z,100380.63
2023-05-06T03:41:00.671Z,100381.84
2023-05-06T03:43:27.143Z,100382.19
2023-05-06T03:45:53.631Z,100385.54
2023-05-06T03:48:20.074Z,100378.49
2023-05-06T03:50:46.720Z,100380.95
2023-05-06T03:53:13.265Z,100377.61
2023-05-06T03:55:39.724Z,100381.66
2023-05-06T03:58:06.231Z,100383.59
2023-05-06T04:00:32.800Z,100384.09
2023-05-06T04:02:59.283Z,100383.05
2023-05-06T04:05:25.829Z,100384.80
2023-05-06T04:07:52.302Z,100387.95
2023-05-06T04:10:18.858Z,100386.54
2023-05-06T04:12:45.347Z,100390.73
2023-05-06T04:15:12.095Z,100396.70
2023-05-06T04:17:38.719Z,100396.50
2023-05-06T04:20:05.664Z,100401.92
2023-05-06T04:22:32.182Z,100406.64
2023-05-06T04:24:58.637Z,100408.02
2023-05-06T04:27:25.135Z,100411.33
2023-05-06T04:29:51.597Z,100406.74
2023-05-06T04:32:18.070Z,100407.06
2023-05-06T04:34:44.490Z,100402.27
2023-05-06T04:37:10.951Z,100409.25
2023-05-06T04:39:37.379Z,100413.95
2023-05-06T04:42:03.992Z,100413.73
2023-05-06T04:44:30.415Z,100419.14
2023-05-06T04:46:56.840Z,100413.46
2023-05-06T04:49:23.325Z,100415.34
2023-05-06T04:51:49.799Z,100416.86
2023-05-06T04:54:16.215Z,100408.20
2023-05-06T04:56:42.655Z,100410.08
2023-05-06T04:59:09.081Z,100412.48
2023-05-06T05:01:35.551Z,100417.69
2023-05-06T05:04:01.982Z,100422.71
2023-05-06T05:06:28.428Z,100420.38
2023-05-06T05:08:55.476Z,100416.79
2023-05-06T05:11:22.038Z,100424.45
2023-05-06T05:13:48.463Z,100425.45
2023-05-06T05:16:14.982Z,100430.51
2023-05-06T05:18:41.443Z,100434.39
2023-05-06T05:21:07.874Z,100435.45
2023-05-06T05:23:34.339Z,100442.70
2023-05-06T05:26:01.701Z,100440.21
2023-05-06T05:28:28.135Z,100441.60
2023-05-06T05:30:54.610Z,100441.76
2023-05-06T05:33:21.304Z,100435.56
2023-05-06T05:35:47.810Z,100435.52
2023-05-06T05:38:14.252Z,100427.54
2023-05-06T05:40:40.713Z,100426.21
2023-05-06T05:43:07.173Z,100424.49
2023-05-06T05:45:33.604Z,100424.52
2023-05-06T05:48:00.121Z,100425.96
2023-05-06T05:50:26.729Z,100423.52
2023-05-06T05:52:53.190Z,100421.25
2023-05-06T05:55:19.640Z,100420.19
2023-05-06T05:57:46.091Z,100420.88
2023-05-06T06:00:13.773Z,100423.17
2023-05-06T06:02:40.426Z,100421.41
2023-05-06T06:05:07.695Z,100426.16
2023-05-06T06:07:34.411Z,100424.05
2023-05-06T06:10:00.939Z,100421.38
2023-05-06T06:12:27.408Z,100421.88
2023-05-06T06:14:53.919Z,100418.69
2023-05-06T06:17:20.459Z,100415.86
2023-05-06T06:19:46.934Z,100413.73
2023-05-06T06:22:13.636Z,100417.35
2023-05-06T06:24:40.102Z,100416.44
2023-05-06T06:27:06.521Z,100414.09
2023-05-06T06:29:32.978Z,100415.25
2023-05-06T06:31:59.483Z,100416.17
2023-05-06T06:34:25.973Z,100410.05
2023-05-06T06:36:52.381Z,100412.58
2023-05-06T06:39:18.821Z,100417.23
2023-05-06T06:41:45.374Z,100412.88
2023-05-06T06:44:11.793Z,100414.57
2023-05-06T06:46:38.241Z,100411.30
2023-05-06T06:49:04.707Z,100412.65
2023-05-06T06:51:31.223Z,100407.79
2023-05-06T06:53:57.758Z,100406.77
2023-05-06T06:56:24.260Z,100405.74
2023-05-06T06:58:52.371Z,100404.72
2023-05-06T07:01:19.687Z,100396.38
2023-05-06T07:03:46.203Z,100387.76
2023-05-06T07:06:15.031Z,100387.80
2023-05-06T07:08:42.164Z,100393.30
2023-05-06T07:11:08.683Z,100395.27
2023-05-06T07:13:35.209Z,100392.30
2023-05-06T07:16:01.640Z,100386.80
2023-05-06T07:18:28.100Z,100389.17
2023-05-06T07:20:54.604Z,100391.48
2023-05-06T07:23:21.103Z,100392.41
2023-05-06T07:25:47.715Z,100392.25
2023-05-06T07:28:14.590Z,100395.10
2023-05-06T07:30:41.820Z,100395.61
2023-05-06T07:33:08.342Z,100390.43
2023-05-06T07:35:34.850Z,100391.52
2023-05-06T07:38:01.521Z,100391.09
2023-05-06T07:40:27.981Z,100392.80
2023-05-06T07:42:54.633Z,100394.35
2023-05-06T07:45:21.120Z,100392.04
2023-05-06T07:47:47.623Z,100393.91
2023-05-06T07:50:14.364Z,100393.02
2023-05-06T07:52:40.911Z,100391.78
2023-05-06T07:55:08.330Z,100385.91
2023-05-06T07:57:35.637Z,100386.98
2023-05-06T08:00:04.001Z,100387.52
2023-05-06T08:02:30.899Z,100388.23
2023-05-06T08:04:57.449Z,100387.25
2023-05-06T08:07:23.882Z,100394.77
2023-05-06T08:09:50.348Z,100396.41
2023-05-06T08:12:16.792Z,100390.59
2023-05-06T08:14:43.283Z,100393.54
2023-05-06T08:17:09.756Z,100398.33
2023-05-06T08:19:36.215Z,100401.05
2023-05-06T08:22:02.664Z,100398.10
2023-05-06T08:24:29.092Z,100397.64
2023-05-06T08:26:55.537Z,100405.20
2023-05-06T08:29:22.025Z,100405.73
2023-05-06T08:31:48.493Z,100407.08
2023-05-06T08:34:15.014Z,100402.77
2023-05-06T08:36:41.884Z,100402.55
2023-05-06T08:39:08.292Z,100398.65
2023-05-06T08:41:36.552Z,100396.06
2023-05-06T08:44:04.328Z,100399.55
2023-05-06T08:46:31.123Z,100405.52
2023-05-06T08:49:00.397Z,100401.45
2023-05-06T08:51:29.370Z,100406.77
2023-05-06T08:54:03.599Z,100401.70
2023-05-06T08:56:34.755Z,100395.94
2023-05-06T08:59:01.292Z,100390.77
2023-05-06T09:01:28.659Z,100387.11
2023-05-06T09:03:58.344Z,100386.58
2023-05-06T09:06:24.983Z,100386.93
2023-05-06T09:08:51.423Z,100383.30
2023-05-06T09:11:28.897Z,100375.17
2023-05-06T09:14:13.150Z,100368.41
2023-05-06T09:16:43.900Z,100369.02
2023-05-06T09:19:11.102Z,100368.73
2023-05-06T09:21:42.843Z,100362.45
2023-05-06T09:24:10.519Z,100363.59
2023-05-06T09:26:39.182Z,100363.36
2023-05-06T09:29:06.588Z,100359.34
2023-05-06T09:31:33.439Z,100364.20
2023-05-06T09:34:00.573Z,100357.40
2023-05-06T09:36:28.299Z,100353.35
2023-05-06T09:38:55.908Z,100351.86
2023-05-06T09:41:23.734Z,100351.30
2023-05-06T09:43:50.219Z,100350.49
2023-05-06T09:46:17.173Z,100352.96
2023-05-06T09:48:45.926Z,100346.33
2023-05-06T09:51:12.819Z,100346.05
2023-05-06T09:53:39.434Z,100340.42
2023-05-06T09:56:07.211Z,100342.49
2023-05-06T09:58:35.303Z,100336.95
2023-05-06T10:01:03.684Z,100337.36
2023-05-06T10:03:30.993Z,100332.50
2023-05-06T10:05:58.009Z,100327.05
2023-05-06T10:08:25.206Z,100330.23
2023-05-06T10:10:51.984Z,100330.63
2023-05-06T10:13:20.445Z,100325.02
2023-05-06T10:15:49.163Z,100320.02
2023-05-06T10:18:16.966Z,100312.67
2023-05-06T10:20:44.700Z,100315.56
2023-05-06T10:23:24.374Z,100311.97
2023-05-06T10:25:55.680Z,100305.77
2023-05-06T10:28:26.601Z,100307.58
2023-05-06T10:30:58.101Z,100304.65
2023-05-06T10:33:26.092Z,100304.80
2023-05-06T10:36:00.972Z,100301.41
2023-05-06T10:38:37.847Z,100302.54
2023-05-06T10:41:04.560Z,100299.13
2023-05-06T10:43:35.116Z,100296.24
2023-05-06T10:46:16.002Z,100290.50
2023-05-06T10:49:04.758Z,100291.71
2023-05-06T10:51:35.275Z,100289.66
2023-05-06T10:54:18.065Z,100290.50
2023-05-06T10:56:50.470Z,100286.52
2023-05-06T10:59:27.548Z,100278.74
2023-05-06T11:02:08.806Z,100269.46
2023-05-06T11:04:35.207Z,100262.48
2023-05-06T11:07:15.388Z,100259.89
2023-05-06T11:10:05.162Z,100262.11
2023-05-06T11:12:52.722Z,100259.77
2023-05-06T11:15:26.402Z,100258.14
2023-05-06T11:17:54.599Z,100252.75
2023-05-06T11:20:24.048Z,100257.11
2023-05-06T11:22:50.542Z,100252.14
2023-05-06T11:25:53.250Z,100252.28
2023-05-06T11:28:20.396Z,100255.52
2023-05-06T11:30:55.288Z,100257.91
2023-05-06T11:33:24.951Z,100250.48
2023-05-06T11:35:51.490Z,100251.70
2023-05-06T11:38:17.949Z,100257.30
2023-05-06T11:40:44.473Z,100260.70
2023-05-06T11:43:15.585Z,100259.42
2023-05-06T11:45:45.887Z,100260.71
2023-05-06T11:48:16.573Z,100260.64
2023-05-06T11:50:47.470Z,100260.34
2023-05-06T11:53:16.861Z,100265.48
2023-05-06T11:55:44.653Z,100264.73
2023-05-06T11:58:37.370Z,100259.98
2023-05-06T12:01:04.342Z,100264.91
2023-05-06T12:03:32.844Z,100262.17
2023-05-06T12:06:00.212Z,100260.52
2023-05-06T12:08:34.754Z,100256.69
2023-05-06T12:11:08.986Z,100258.55
2023-05-06T12:13:35.936Z,100257.22
2023-05-06T12:16:04.336Z,100260.25
2023-05-06T12:18:30.979Z,100258.59
2023-05-06T12:20:57.662Z,100255.09
2023-05-06T12:23:24.141Z,100254.52
2023-05-06T12:26:06.279Z,100259.48
2023-05-06T12:28:35.460Z,100261.51
2023-05-06T12:31:21.605Z,100258.27
2023-05-06T12:33:49.218Z,100254.64
2023-05-06T12:36:18.012Z,100249.73
2023-05-06T12:38:51.704Z,100250.65
2023-05-06T12:41:21.962Z,100249.99
2023-05-06T12:43:48.763Z,100249.09
2023-05-06T12:46:16.797Z,100246.52
2023-05-06T12:48:56.696Z,100245.98
2023-05-06T12:51:23.634Z,100243.23
2023-05-06T12:53:50.095Z,100244.11
2023-05-06T12:56:16.656Z,100240.61
2023-05-06T12:58:43.212Z,100240.69
2023-05-06T13:01:09.724Z,100238.84
2023-05-06T13:03:38.302Z,100238.57
2023-05-06T13:06:05.421Z,100235.71
2023-05-06T13:08:32.016Z,100235.22
2023-05-06T13:10:58.493Z,100236.07
2023-05-06T13:13:24.943Z,100236.06
2023-05-06T13:15:53.274Z,100235.29
2023-05-06T13:18:19.794Z,100234.61
2023-05-06T13:20:46.279Z,100226.83
2023-05-06T13:23:12.805Z,100226.95
2023-05-06T13:25:48.164Z,100231.73
2023-05-06T13:28:25.672Z,100229.92
2023-05-06T13:30:52.312Z,100230.38
2023-05-06T13:33:18.885Z,100231.41
2023-05-06T13:35:45.385Z,100231.08
2023-05-06T13:38:11.827Z,100227.56
2023-05-06T13:40:38.299Z,100226.32
2023-05-06T13:43:04.777Z,100226.81
2023-05-06T13:45:33.295Z,100224.39
2023-05-06T13:47:59.763Z,100225.39
2023-05-06T13:50:26.226Z,100224.89
2023-05-06T13:52:52.665Z,100222.55
2023-05-06T13:55:19.598Z,100220.56
2023-05-06T13:57:46.269Z,100220.23
2023-05-06T14:00:13.338Z,100225.17
2023-05-06T14:02:39.830Z,100229.79
2023-05-06T14:05:06.933Z,100233.55
2023-05-06T14:07:33.383Z,100237.13
2023-05-06T14:09:59.840Z,100238.64
2023-05-06T14:12:26.333Z,100241.03
2023-05-06T14:14:52.759Z,100244.22
2023-05-06T14:17:19.269Z,100244.83
2023-05-06T14:19:45.732Z,100241.73
2023-05-06T14:22:12.440Z,100234.89
2023-05-06T14:24:38.920Z,100236.15
2023-05-06T14:27:05.404Z,100237.88
2023-05-06T14:29:31.952Z,100239.23
2023-05-06T14:31:58.511Z,100244.88
2023-05-06T14:34:24.987Z,100244.89
2023-05-06T14:36:51.407Z,100245.40
2023-05-06T14:39:17.833Z,100247.63
2023-05-06T14:41:44.312Z,100246.23
2023-05-06T14:44:10.811Z,100248.06
2023-05-06T14:46:37.262Z,100249.20
2023-05-06T14:49:03.717Z,100248.67
2023-05-06T14:51:30.188Z,100245.27
2023-05-06T14:53:56.693Z,100242.02
2023-05-06T14:56:23.155Z,100239.61
2023-05-06T14:58:49.586Z,100239.20
2023-05-06T15:01:16.058Z,100238.16
2023-05-06T15:03:42.571Z,100238.26
2023-05-06T15:06:09.110Z,100242.53
2023-05-06T15:08:35.599Z,100238.08
2023-05-06T15:11:03.880Z,100235.15
2023-05-06T15:13:30.789Z,100235.11
2023-05-06T15:15:57.230Z,100232.40
2023-05-06T15:18:23.702Z,100229.71
2023-05-06T15:20:50.334Z,100223.09
2023-05-06T15:23:16.783Z,100219.16
2023-05-06T15:25:43.246Z,100219.73
2023-05-06T15:28:09.707Z,100213.83
2023-05-06T15:30:37.784Z,100214.11
2023-05-06T15:33:05.324Z,100216.66
2023-05-06T15:35:31.836Z,100212.92
2023-05-06T15:37:58.441Z,100211.42
2023-05-06T15:40:25.694Z,100209.83
2023-05-06T15:42:52.319Z,100208.90
2023-05-06T15:45:19.372Z,100208.63
2023-05-06T15:47:45.892Z,100207.80
2023-05-06T15:50:24.674Z,100206.70
2023-05-06T15:52:58.793Z,100207.00
2023-05-06T15:55:26.214Z,100203.16
2023-05-06T15:57:53.264Z,100203.16
2023-05-06T16:00:20.017Z,100210.30
2023-05-06T16:02:46.774Z,100210.92
2023-05-06T16:05:13.425Z,100209.98
2023-05-06T16:07:39.886Z,100211.66
2023-05-06T16:10:07.012Z,100216.66
2023-05-06T16:12:33.535Z,100215.98
2023-05-06T16:15:00.572Z,100213.52
2023-05-06T16:17:27.140Z,100211.73
2023-05-06T16:19:53.644Z,100207.97
2023-05-06T16:22:20.092Z,100207.09
2023-05-06T16:24:46.590Z,100205.45
2023-05-06T16:27:13.050Z,100206.80
2023-05-06T16:29:39.528Z,100208.68
2023-05-06T16:32:05.982Z,100212.23
2023-05-06T16:34:32.459Z,100209.23
2023-05-06T16:36:58.928Z,100214.75
2023-05-06T16:39:25.374Z,100215.98
2023-05-06T16:41:51.871Z,100220.70
2023-05-06T16:44:18.312Z,100223.86
2023-05-06T16:46:44.801Z,100221.36
2023-05-06T16:49:11.242Z,100221.50
2023-05-06T16:51:37.700Z,100226.95
2023-05-06T16:54:04.200Z,100230.20
2023-05-06T16:56:43.824Z,100231.65
2023-05-06T16:59:19.467Z,100233.17
2023-05-06T17:01:48.092Z,100226.28
2023-05-06T17:04:14.564Z,100226.90
2023-05-06T17:06:41.052Z,100223.21
2023-05-06T17:09:07.511Z,100221.84
2023-05-06T17:11:33.958Z,100219.48
2023-05-06T17:14:00.398Z,100218.92
2023-05-06T17:16:26.879Z,100216.83
2023-05-06T17:18:53.405Z,100214.45
2023-05-06T17:21:19.881Z,100210.77
2023-05-06T17:23:46.356Z,100212.63
2023-05-06T17:26:12.837Z,100208.67
2023-05-06T17:28:39.329Z,100202.48
2023-05-06T17:31:05.834Z,100202.29
2023-05-06T17:33:32.348Z,100205.13
2023-05-06T17:35:58.854Z,100206.02
2023-05-06T17:38:25.397Z,100203.90
2023-05-06T17:40:51.919Z,100207.61
2023-05-06T17:43:18.405Z,100205.39
2023-05-06T17:45:44.856Z,100205.34
2023-05-06T17:48:11.410Z,100203.55
2023-05-06T17:50:37.945Z,100203.48
2023-05-06T17:53:04.416Z,100202.89
2023-05-06T17:55:30.907Z,100199.73
2023-05-06T17:57:58.168Z,100200.02
2023-05-06T18:00:24.695Z,100197.84
2023-05-06T18:02:51.227Z,100199.74
2023-05-06T18:05:17.767Z,100205.34
2023-05-06T18:07:44.299Z,100212.72
2023-05-06T18:10:10.954Z,100214.80
2023-05-06T18:12:37.527Z,100217.24
2023-05-06T18:15:04.992Z,100214.85
2023-05-06T18:17:31.516Z,100216.96
2023-05-06T18:19:57.984Z,100218.54
2023-05-06T18:22:24.499Z,100219.98
2023-05-06T18:24:50.971Z,100221.08
2023-05-06T18:27:17.393Z,100217.88
2023-05-06T18:29:43.848Z,100221.43
2023-05-06T18:32:10.329Z,100224.30
2023-05-06T18:34:36.838Z,100228.23
2023-05-06T18:37:03.306Z,100229.73
2023-05-06T18:39:29.976Z,100229.79
2023-05-06T18:41:56.436Z,100233.55
2023-05-06T18:44:22.910Z,100234.27
2023-05-06T18:46:49.423Z,100237.52
2023-05-06T18:49:15.893Z,100236.64
2023-05-06T18:51:42.332Z,100234.74
2023-05-06T18:54:08.838Z,100237.09
2023-05-06T18:56:35.389Z,100236.96
2023-05-06T18:59:01.904Z,100236.50
2023-05-06T19:01:28.449Z,100233.90
2023-05-06T19:03:55.134Z,100236.84
2023-05-06T19:06:21.748Z,100239.95
2023-05-06T19:08:48.228Z,100243.08
2023-05-06T19:11:15.817Z,100245.08
2023-05-06T19:13:42.985Z,100251.15
2023-05-06T19:16:09.429Z,100258.21
2023-05-06T19:18:35.956Z,100257.61
2023-05-06T19:21:02.450Z,100261.59
2023-05-06T19:23:28.912Z,100263.11
2023-05-06T19:25:55.393Z,100264.42
2023-05-06T19:28:21.876Z,100264.70
2023-05-06T19:30:48.477Z,100266.23
2023-05-06T19:33:15.074Z,100267.17
2023-05-06T19:35:41.594Z,100263.15
2023-05-06T19:38:08.940Z,100262.33
2023-05-06T19:40:35.643Z,100262.80
2023-05-06T19:43:02.284Z,100262.71
2023-05-06T19:45:28.849Z,100264.02
2023-05-06T19:47:55.274Z,100262.48
2023-05-06T19:50:21.813Z,100265.34
2023-05-06T19:52:48.286Z,100268.73
2023-05-06T19:55:14.748Z,100275.02
2023-05-06T19:57:41.212Z,100276.65
2023-05-06T20:00:08.526Z,100277.21
2023-05-06T20:02:36.299Z,100280.17
2023-05-06T20:05:03.588Z,100283.54
2023-05-06T20:07:30.086Z,100289.95
2023-05-06T20:09:56.574Z,100292.63
2023-05-06T20:12:24.965Z,100296.42
2023-05-06T20:14:51.392Z,100286.41
2023-05-06T20:17:18.422Z,100285.77
2023-05-06T20:19:45.395Z,100291.83
2023-05-06T20:22:11.862Z,100296.42
2023-05-06T20:24:41.322Z,100293.83
2023-05-06T20:27:08.121Z,100292.83
2023-05-06T20:29:34.604Z,100290.59
2023-05-06T20:32:01.348Z,100283.43
2023-05-06T20:34:28.035Z,100276.44
2023-05-06T20:36:54.484Z,100272.39
2023-05-06T20:39:21.085Z,100270.79
2023-05-06T20:41:47.578Z,100264.08
2023-05-06T20:44:14.065Z,100260.16
2023-05-06T20:46:40.554Z,100259.99
2023-05-06T20:49:07.820Z,100252.89
2023-05-06T20:51:34.326Z,100250.78
2023-05-06T20:54:01.209Z,100246.88
2023-05-06T20:56:28.224Z,100247.43
2023-05-06T20:58:55.902Z,100248.55
2023-05-06T21:01:24.087Z,100243.81
2023-05-06T21:03:50.782Z,100236.94
2023-05-06T21:06:18.679Z,100236.09
2023-05-06T21:08:46.364Z,100236.30
2023-05-06T21:11:13.476Z,100237.23
2023-05-06T21:13:40.355Z,100234.98
2023-05-06T21:16:06.760Z,100229.33
2023-05-06T21:18:33.278Z,100226.20
2023-05-06T21:20:59.849Z,100227.20
2023-05-06T21:23:26.485Z,100231.67
2023-05-06T21:25:53.106Z,100236.27
2023-05-06T21:28:19.604Z,100240.16
2023-05-06T21:30:46.116Z,100246.04
2023-05-06T21:33:12.623Z,100248.75
2023-05-06T21:35:39.102Z,100250.61
2023-05-06T21:38:05.600Z,100252.06
2023-05-06T21:40:32.091Z,100253.14
2023-05-06T21:42:58.537Z,100254.05
2023-05-06T21:45:25.032Z,100251.27
2023-05-06T21:47:51.606Z,100252.36
2023-05-06T21:50:18.195Z,100251.34
2023-05-06T21:52:44.682Z,100250.18
2023-05-06T21:55:11.504Z,100256.99
2023-05-06T21:57:38.319Z,100263.88
2023-05-06T22:00:06.099Z,100266.67
2023-05-06T22:02:32.622Z,100267.65
2023-05-06T22:04:59.098Z,100265.95
2023-05-06T22:07:25.546Z,100266.59
2023-05-06T22:09:51.975Z,100271.30
2023-05-06T22:12:18.455Z,100275.11
2023-05-06T22:14:44.899Z,100278.16
2023-05-06T22:17:11.413Z,100283.17
2023-05-06T22:19:37.918Z,100278.18
2023-05-06T22:22:04.735Z,100283.25
2023-05-06T22:24:31.195Z,100288.48
2023-05-06T22:26:57.640Z,100291.27
2023-05-06T22:29:24.191Z,100292.60
2023-05-06T22:31:50.647Z,100277.66
2023-05-06T22:34:17.148Z,100277.34
2023-05-06T22:36:43.655Z,100279.19
2023-05-06T22:39:10.087Z,100277.30
2023-05-06T22:41:36.522Z,100272.06
2023-05-06T22:44:03.010Z,100268.76
2023-05-06T22:46:29.498Z,100269.30
2023-05-06T22:48:55.981Z,100267.35
2023-05-06T22:51:22.407Z,100263.64
2023-05-06T22:53:48.844Z,100261.52
2023-05-06T22:56:15.273Z,100255.98
2023-05-06T22:58:41.713Z,100252.41
2023-05-06T23:01:08.272Z,100250.84
2023-05-06T23:03:35.559Z,100252.29
2023-05-06T23:06:02.102Z,100249.30
2023-05-06T23:08:28.582Z,100246.73
2023-05-06T23:10:55.031Z,100248.69
2023-05-06T23:13:21.565Z,100252.77
2023-05-06T23:15:48.129Z,100249.77
2023-05-06T23:18:14.677Z,100248.23
2023-05-06T23:20:41.173Z,100244.20
2023-05-06T23:23:07.627Z,100239.13
2023-05-06T23:25:34.075Z,100240.44
2023-05-06T23:28:00.530Z,100244.75
2023-05-06T23:30:27.109Z,100251.17
2023-05-06T23:32:53.681Z,100251.77
2023-05-06T23:35:20.156Z,100251.18
2023-05-06T23:37:46.613Z,100251.61
2023-05-06T23:40:13.541Z,100246.21
2023-05-06T23:42:40.556Z,100242.25
2023-05-06T23:45:07.843Z,100246.94
2023-05-06T23:47:34.348Z,100250.43
2023-05-06T23:50:00.865Z,100251.77
2023-05-06T23:52:27.349Z,100254.02
2023-05-06T23:54:53.812Z,100256.38
2023-05-06T23:57:20.380Z,100251.16
2023-05-06T23:59:46.810Z,100254.75
